createdAt,value
2022-11-25T00:00:19.700Z,6.70
2022-11-25T00:03:05.316Z,6.70
2022-11-25T00:05:50.796Z,6.70
2022-11-25T00:08:37.174Z,6.70
2022-11-25T00:11:23.079Z,6.80
2022-11-25T00:14:12.574Z,6.80
2022-11-25T00:16:58.112Z,6.80
2022-11-25T00:19:43.929Z,6.70
2022-11-25T00:22:29.548Z,6.70
2022-11-25T00:25:15.553Z,6.60
2022-11-25T00:28:00.904Z,6.60
2022-11-25T00:30:46.456Z,6.60
2022-11-25T00:33:32.183Z,6.60
2022-11-25T00:36:21.984Z,6.60
2022-11-25T00:39:11.882Z,6.60
2022-11-25T00:42:16.124Z,6.60
2022-11-25T00:45:01.690Z,6.60
2022-11-25T00:47:47.325Z,6.70
2022-11-25T00:50:32.655Z,6.60
2022-11-25T00:53:18.200Z,6.60
2022-11-25T00:56:15.792Z,6.60
2022-11-25T00:59:01.351Z,6.60
2022-11-25T01:01:47.485Z,6.50
2022-11-25T01:04:34.346Z,6.50
2022-11-25T01:07:20.239Z,6.50
2022-11-25T01:10:06.476Z,6.60
2022-11-25T01:12:52.348Z,6.60
2022-11-25T01:15:38.008Z,6.60
2022-11-25T01:18:23.903Z,6.60
2022-11-25T01:21:12.617Z,6.70
2022-11-25T01:24:01.170Z,6.60
2022-11-25T01:26:47.021Z,6.60
2022-11-25T01:29:33.585Z,6.60
2022-11-25T01:32:19.088Z,6.60
2022-11-25T01:35:05.269Z,6.60
2022-11-25T01:37:50.964Z,6.60
2022-11-25T01:40:36.559Z,6.60
2022-11-25T01:43:22.097Z,6.50
2022-11-25T01:46:25.752Z,6.60
2022-11-25T01:49:19.625Z,6.60
2022-11-25T01:52:27.625Z,6.60
2022-11-25T01:55:21.033Z,6.60
2022-11-25T01:58:12.236Z,6.60
2022-11-25T02:00:58.633Z,6.60
2022-11-25T02:03:48.985Z,6.60
2022-11-25T02:06:52.808Z,6.60
2022-11-25T02:09:42.580Z,6.50
2022-11-25T02:12:29.444Z,6.60
2022-11-25T02:15:17.015Z,6.60
2022-11-25T02:18:02.877Z,6.60
2022-11-25T02:20:48.669Z,6.60
2022-11-25T02:23:48.952Z,6.60
2022-11-25T02:26:35.629Z,6.40
2022-11-25T02:29:22.350Z,6.70
2022-11-25T02:32:08.104Z,6.70
2022-11-25T02:34:53.652Z,6.70
2022-11-25T02:37:39.269Z,6.70
2022-11-25T02:40:27.294Z,6.70
2022-11-25T02:43:13.881Z,6.70
2022-11-25T02:46:16.154Z,6.70
2022-11-25T02:49:09.931Z,6.70
2022-11-25T02:51:56.349Z,6.70
2022-11-25T02:54:41.908Z,6.70
2022-11-25T02:57:27.257Z,6.70
2022-11-25T03:00:13.474Z,6.70
2022-11-25T03:02:59.257Z,6.70
2022-11-25T03:05:44.775Z,6.70
2022-11-25T03:08:30.343Z,6.70
2022-11-25T03:11:16.418Z,6.70
2022-11-25T03:14:02.060Z,6.70
2022-11-25T03:16:47.792Z,6.70
2022-11-25T03:19:33.280Z,6.70
2022-11-25T03:22:18.849Z,6.60
2022-11-25T03:25:04.907Z,6.60
2022-11-25T03:27:50.811Z,6.60
2022-11-25T03:30:36.592Z,6.60
2022-11-25T03:33:22.933Z,6.60
2022-11-25T03:36:09.203Z,6.50
2022-11-25T03:38:54.820Z,6.50
2022-11-25T03:41:41.836Z,6.50
2022-11-25T03:44:27.404Z,6.40
2022-11-25T03:47:12.920Z,6.40
2022-11-25T03:49:58.566Z,6.30
2022-11-25T03:52:44.413Z,6.30
2022-11-25T03:55:30.811Z,6.20
2022-11-25T03:58:16.734Z,6.20
2022-11-25T04:01:02.875Z,6.30
2022-11-25T04:03:48.558Z,6.30
2022-11-25T04:06:34.389Z,6.30
2022-11-25T04:09:20.099Z,6.30
2022-11-25T04:12:26.027Z,6.20
2022-11-25T04:15:17.757Z,6.30
2022-11-25T04:18:07.376Z,6.30
2022-11-25T04:20:53.611Z,6.30
2022-11-25T04:23:40.297Z,6.30
2022-11-25T04:26:30.005Z,6.40
2022-11-25T04:29:15.953Z,6.30
2022-11-25T04:32:02.484Z,6.30
2022-11-25T04:34:48.033Z,6.30
2022-11-25T04:37:33.682Z,6.30
2022-11-25T04:40:19.287Z,6.30
2022-11-25T04:43:10.820Z,6.30
2022-11-25T04:46:16.637Z,6.30
2022-11-25T04:49:06.344Z,6.40
2022-11-25T04:51:52.411Z,6.40
2022-11-25T04:54:38.016Z,6.30
2022-11-25T04:57:23.890Z,6.30
2022-11-25T05:00:11.007Z,6.30
2022-11-25T05:02:57.292Z,6.30
2022-11-25T05:05:42.869Z,6.40
2022-11-25T05:08:28.511Z,6.30
2022-11-25T05:11:13.881Z,6.20
2022-11-25T05:13:59.697Z,6.20
2022-11-25T05:16:45.216Z,6.30
2022-11-25T05:19:31.332Z,6.30
2022-11-25T05:22:23.357Z,6.30
2022-11-25T05:25:10.759Z,6.30
2022-11-25T05:28:04.525Z,6.30
2022-11-25T05:30:50.364Z,6.30
2022-11-25T05:33:36.112Z,6.30
2022-11-25T05:36:23.284Z,6.30
2022-11-25T05:39:09.055Z,6.30
2022-11-25T05:42:17.407Z,6.10
2022-11-25T05:45:04.859Z,6.20
2022-11-25T05:47:51.825Z,6.20
2022-11-25T05:50:42.014Z,6.20
2022-11-25T05:53:37.364Z,6.20
2022-11-25T05:56:23.024Z,6.20
2022-11-25T05:59:11.433Z,6.10
2022-11-25T06:02:11.976Z,6.10
2022-11-25T06:04:57.784Z,6.10
2022-11-25T06:07:43.604Z,6.00
2022-11-25T06:10:29.693Z,6.00
2022-11-25T06:13:15.215Z,6.00
2022-11-25T06:16:10.159Z,6.00
2022-11-25T06:18:56.387Z,6.00
2022-11-25T06:21:42.082Z,6.00
2022-11-25T06:24:27.785Z,6.00
2022-11-25T06:27:18.519Z,6.00
2022-11-25T06:30:05.764Z,6.00
2022-11-25T06:32:51.699Z,6.00
2022-11-25T06:35:41.380Z,6.00
2022-11-25T06:38:27.833Z,6.10
2022-11-25T06:41:15.338Z,6.00
2022-11-25T06:44:01.024Z,6.00
2022-11-25T06:46:46.712Z,6.10
2022-11-25T06:49:32.324Z,6.10
2022-11-25T06:52:17.845Z,6.00
2022-11-25T06:55:04.105Z,6.10
2022-11-25T06:57:50.066Z,6.10
2022-11-25T07:00:39.853Z,6.10
2022-11-25T07:03:25.498Z,6.10
2022-11-25T07:06:15.530Z,6.20
2022-11-25T07:09:01.729Z,6.20
2022-11-25T07:11:47.552Z,6.30
2022-11-25T07:14:33.642Z,6.30
2022-11-25T07:17:19.459Z,6.30
2022-11-25T07:20:05.604Z,6.40
2022-11-25T07:22:51.608Z,6.40
2022-11-25T07:25:37.108Z,6.30
2022-11-25T07:28:22.875Z,6.30
2022-11-25T07:31:25.062Z,6.30
2022-11-25T07:34:20.412Z,6.40
2022-11-25T07:37:05.992Z,6.40
2022-11-25T07:39:51.772Z,6.40
2022-11-25T07:42:37.469Z,6.50
2022-11-25T07:45:24.461Z,6.70
2022-11-25T07:48:17.372Z,6.70
2022-11-25T07:51:03.196Z,6.80
2022-11-25T07:53:50.090Z,6.80
2022-11-25T07:56:38.504Z,6.90
2022-11-25T07:59:24.419Z,7.00
2022-11-25T08:02:10.502Z,7.10
2022-11-25T08:04:56.169Z,7.10
2022-11-25T08:07:41.636Z,7.10
2022-11-25T08:10:27.262Z,7.20
2022-11-25T08:13:13.266Z,7.20
2022-11-25T08:16:02.081Z,7.40
2022-11-25T08:18:48.834Z,7.50
2022-11-25T08:21:34.675Z,7.50
2022-11-25T08:24:21.299Z,7.60
2022-11-25T08:27:06.824Z,7.70
2022-11-25T08:29:52.660Z,7.70
2022-11-25T08:32:38.941Z,7.80
2022-11-25T08:35:24.493Z,7.90
2022-11-25T08:38:11.908Z,8.00
2022-11-25T08:40:57.593Z,8.10
2022-11-25T08:43:44.182Z,8.10
2022-11-25T08:46:33.479Z,8.10
2022-11-25T08:49:19.849Z,8.10
2022-11-25T08:52:05.410Z,8.20
2022-11-25T08:54:51.065Z,8.20
2022-11-25T08:57:36.908Z,8.30
2022-11-25T09:00:22.981Z,8.30
2022-11-25T09:03:09.772Z,8.30
2022-11-25T09:05:55.430Z,8.30
2022-11-25T09:08:42.629Z,8.60
2022-11-25T09:11:28.703Z,8.60
2022-11-25T09:14:14.941Z,8.70
2022-11-25T09:17:02.062Z,8.60
2022-11-25T09:19:48.017Z,8.60
2022-11-25T09:22:33.747Z,8.60
2022-11-25T09:25:20.287Z,8.70
2022-11-25T09:28:05.965Z,8.70
2022-11-25T09:30:52.702Z,8.90
2022-11-25T09:33:38.337Z,9.00
2022-11-25T09:36:24.895Z,9.00
2022-11-25T09:39:10.782Z,9.10
2022-11-25T09:42:24.243Z,9.10
2022-11-25T09:45:40.580Z,9.20
2022-11-25T09:49:20.308Z,9.30
2022-11-25T09:52:21.923Z,9.30
2022-11-25T09:55:17.337Z,9.40
2022-11-25T09:58:14.672Z,9.30
2022-11-25T10:01:03.847Z,9.30
2022-11-25T10:03:53.162Z,9.50
2022-11-25T10:06:54.946Z,9.60
2022-11-25T10:09:41.039Z,9.70
2022-11-25T10:12:32.578Z,9.70
2022-11-25T10:15:25.545Z,9.60
2022-11-25T10:18:25.128Z,9.70
2022-11-25T10:21:11.651Z,9.90
2022-11-25T10:23:58.575Z,9.90
2022-11-25T10:26:48.044Z,9.80
2022-11-25T10:29:38.499Z,9.80
2022-11-25T10:32:26.065Z,9.80
2022-11-25T10:35:34.348Z,9.80
2022-11-25T10:38:35.776Z,9.90
2022-11-25T10:41:25.236Z,9.90
2022-11-25T10:44:48.424Z,10.00
2022-11-25T10:47:44.089Z,10.00
2022-11-25T10:50:42.950Z,10.00
2022-11-25T10:53:30.794Z,10.10
2022-11-25T10:56:19.972Z,10.20
2022-11-25T10:59:14.520Z,10.30
2022-11-25T11:02:21.130Z,10.30
2022-11-25T11:05:10.152Z,10.40
2022-11-25T11:08:21.971Z,10.40
2022-11-25T11:11:23.111Z,10.40
2022-11-25T11:14:08.586Z,10.50
2022-11-25T11:16:56.784Z,10.50
2022-11-25T11:19:42.150Z,10.40
2022-11-25T11:22:28.250Z,10.40
2022-11-25T11:25:27.036Z,10.50
2022-11-25T11:28:30.771Z,10.50
2022-11-25T11:31:39.695Z,10.50
2022-11-25T11:34:40.478Z,10.60
2022-11-25T11:37:47.434Z,10.50
2022-11-25T11:40:44.884Z,10.50
2022-11-25T11:43:51.873Z,10.50
2022-11-25T11:46:46.052Z,10.50
2022-11-25T11:49:43.538Z,10.50
2022-11-25T11:52:47.365Z,10.50
2022-11-25T11:59:31.811Z,10.50
2022-11-25T12:02:20.624Z,10.50
2022-11-25T12:05:17.536Z,10.50
2022-11-25T12:08:12.266Z,10.40
2022-11-25T12:11:03.504Z,10.40
2022-11-25T12:14:25.993Z,10.40
2022-11-25T12:17:25.869Z,10.40
2022-11-25T12:20:32.469Z,10.40
2022-11-25T12:23:58.371Z,10.40
2022-11-25T12:27:07.964Z,10.40
2022-11-25T12:30:07.738Z,10.40
2022-11-25T12:33:08.423Z,10.30
2022-11-25T12:36:11.968Z,10.20
2022-11-25T12:39:05.468Z,10.20
2022-11-25T12:41:59.485Z,10.20
2022-11-25T12:44:45.260Z,10.10
2022-11-25T12:47:31.018Z,10.10
2022-11-25T12:50:25.359Z,10.00
2022-11-25T12:53:30.897Z,10.00
2022-11-25T12:56:26.405Z,9.90
2022-11-25T12:59:25.976Z,9.90
2022-11-25T13:02:24.009Z,9.90
2022-11-25T13:06:00.877Z,9.90
2022-11-25T13:09:10.609Z,9.80
2022-11-25T13:12:02.045Z,9.80
2022-11-25T13:15:12.886Z,9.80
2022-11-25T13:18:11.979Z,9.70
2022-11-25T13:21:10.286Z,9.70
2022-11-25T13:23:58.643Z,9.80
2022-11-25T13:26:49.450Z,9.80
2022-11-25T13:29:54.936Z,9.80
2022-11-25T13:32:42.305Z,9.80
2022-11-25T13:35:32.371Z,9.80
2022-11-25T13:38:30.410Z,9.80
2022-11-25T13:41:16.223Z,9.80
2022-11-25T13:44:15.860Z,9.90
2022-11-25T13:47:40.956Z,9.90
2022-11-25T13:50:41.854Z,9.90
2022-11-25T13:53:35.720Z,9.80
2022-11-25T13:56:21.567Z,9.80
2022-11-25T13:59:10.568Z,9.80
2022-11-25T14:02:30.659Z,9.80
2022-11-25T14:05:38.398Z,9.80
2022-11-25T14:08:38.148Z,9.90
2022-11-25T14:11:42.016Z,9.90
2022-11-25T14:14:58.336Z,10.00
2022-11-25T14:17:52.886Z,10.00
2022-11-25T14:20:58.388Z,10.00
2022-11-25T14:24:06.702Z,10.00
2022-11-25T14:26:54.056Z,10.00
2022-11-25T14:30:03.775Z,10.00
2022-11-25T14:33:02.453Z,10.00
2022-11-25T14:35:51.642Z,10.00
2022-11-25T14:38:53.919Z,10.00
2022-11-25T14:41:49.791Z,10.00
2022-11-25T14:44:46.348Z,10.00
2022-11-25T14:47:36.034Z,10.00
2022-11-25T14:50:40.603Z,10.00
2022-11-25T14:53:28.843Z,9.90
2022-11-25T14:56:16.257Z,9.90
2022-11-25T14:59:02.064Z,9.90
2022-11-25T15:01:54.270Z,9.90
2022-11-25T15:04:41.648Z,9.80
2022-11-25T15:07:31.314Z,9.80
2022-11-25T15:10:33.802Z,9.70
2022-11-25T15:13:42.927Z,9.70
2022-11-25T15:16:39.108Z,9.70
2022-11-25T15:19:33.275Z,9.70
2022-11-25T15:22:23.995Z,9.70
2022-11-25T15:25:14.716Z,9.60
2022-11-25T15:28:00.263Z,9.60
2022-11-25T15:31:00.297Z,9.50
2022-11-25T15:33:47.733Z,9.50
2022-11-25T15:36:33.632Z,9.40
2022-11-25T15:39:27.298Z,9.30
2022-11-25T15:42:18.824Z,9.30
2022-11-25T15:45:11.168Z,9.20
2022-11-25T15:47:57.541Z,9.10
2022-11-25T15:50:43.230Z,9.10
2022-11-25T15:53:33.314Z,9.00
2022-11-25T15:56:25.381Z,8.90
2022-11-25T15:59:45.890Z,8.90
2022-11-25T16:02:39.518Z,8.80
2022-11-25T16:05:37.336Z,8.80
2022-11-25T16:08:33.456Z,8.70
2022-11-25T16:11:20.563Z,8.70
2022-11-25T16:14:28.398Z,8.60
2022-11-25T16:17:14.623Z,8.60
2022-11-25T16:20:00.466Z,8.50
2022-11-25T16:22:46.811Z,8.50
2022-11-25T16:25:32.610Z,8.40
2022-11-25T16:28:23.234Z,8.40
2022-11-25T16:31:18.710Z,8.40
2022-11-25T16:34:15.790Z,8.30
2022-11-25T16:37:01.203Z,8.30
2022-11-25T16:39:46.863Z,8.20
2022-11-25T16:42:32.826Z,8.20
2022-11-25T16:45:25.092Z,8.20
2022-11-25T16:48:17.288Z,8.20
2022-11-25T16:51:03.181Z,8.20
2022-11-25T16:53:48.716Z,8.10
2022-11-25T16:56:43.303Z,8.10
2022-11-25T16:59:32.289Z,8.10
2022-11-25T17:02:22.479Z,8.00
2022-11-25T17:05:17.514Z,8.00
2022-11-25T17:08:03.112Z,8.00
2022-11-25T17:10:50.173Z,8.00
2022-11-25T17:13:39.025Z,7.90
2022-11-25T17:16:27.848Z,7.90
2022-11-25T17:19:16.152Z,7.90
2022-11-25T17:22:01.884Z,7.90
2022-11-25T17:24:48.139Z,7.90
2022-11-25T17:27:34.248Z,7.90
2022-11-25T17:30:21.873Z,7.80
2022-11-25T17:33:15.752Z,7.90
2022-11-25T17:36:01.304Z,7.80
2022-11-25T17:38:47.083Z,7.80
2022-11-25T17:41:39.475Z,7.80
2022-11-25T17:44:29.547Z,7.70
2022-11-25T17:47:16.601Z,7.70
2022-11-25T17:50:05.502Z,7.70
2022-11-25T17:52:51.780Z,7.70
2022-11-25T17:55:38.624Z,7.70
2022-11-25T17:58:24.504Z,7.70
2022-11-25T18:01:10.163Z,7.70
2022-11-25T18:03:55.811Z,7.70
2022-11-25T18:06:41.274Z,7.70
2022-11-25T18:09:27.188Z,7.60
2022-11-25T18:12:26.486Z,7.60
2022-11-25T18:15:18.964Z,7.60
2022-11-25T18:18:20.369Z,7.60
2022-11-25T18:21:06.326Z,7.50
2022-11-25T18:23:53.282Z,7.50
2022-11-25T18:26:44.874Z,7.50
2022-11-25T18:29:30.915Z,7.50
2022-11-25T18:32:16.621Z,7.50
2022-11-25T18:35:02.720Z,7.40
2022-11-25T18:37:48.493Z,7.40
2022-11-25T18:40:36.436Z,7.40
2022-11-25T18:43:24.959Z,7.40
2022-11-25T18:46:12.203Z,7.40
2022-11-25T18:48:57.897Z,7.40
2022-11-25T18:51:43.832Z,7.40
2022-11-25T18:54:29.627Z,7.30
2022-11-25T18:57:15.452Z,7.30
2022-11-25T19:00:31.562Z,7.30
2022-11-25T19:03:16.913Z,7.30
2022-11-25T19:06:03.279Z,7.20
2022-11-25T19:08:52.336Z,7.30
2022-11-25T19:11:46.218Z,7.30
2022-11-25T19:14:41.915Z,7.30
2022-11-25T19:17:28.281Z,7.30
2022-11-25T19:20:16.116Z,7.30
2022-11-25T19:23:16.147Z,7.30
2022-11-25T19:26:11.037Z,7.30
2022-11-25T19:29:03.625Z,7.20
2022-11-25T19:31:54.086Z,7.30
2022-11-25T19:34:43.999Z,7.30
2022-11-25T19:37:32.588Z,7.30
2022-11-25T19:40:22.304Z,7.30
2022-11-25T19:43:08.733Z,7.30
2022-11-25T19:45:56.872Z,7.30
2022-11-25T19:48:42.489Z,7.30
2022-11-25T19:51:32.171Z,7.40
2022-11-25T19:54:19.167Z,7.40
2022-11-25T19:57:10.205Z,7.40
2022-11-25T19:59:56.217Z,7.50
2022-11-25T20:02:43.096Z,7.50
2022-11-25T20:05:31.233Z,7.50
2022-11-25T20:08:23.738Z,8.50
2022-11-25T20:11:17.311Z,7.60
2022-11-25T20:14:04.275Z,7.60
2022-11-25T20:16:55.097Z,7.70
2022-11-25T20:19:40.805Z,7.70
2022-11-25T20:22:30.619Z,7.70
2022-11-25T20:25:16.607Z,7.80
2022-11-25T20:28:03.812Z,7.70
2022-11-25T20:30:51.637Z,7.70
2022-11-25T20:33:37.206Z,7.70
2022-11-25T20:36:28.765Z,7.80
2022-11-25T20:39:19.137Z,7.70
2022-11-25T20:42:05.299Z,7.80
2022-11-25T20:44:57.236Z,7.80
2022-11-25T20:47:43.562Z,7.80
2022-11-25T20:50:30.495Z,7.80
2022-11-25T20:53:17.899Z,7.70
2022-11-25T20:56:03.406Z,7.80
2022-11-25T20:58:49.036Z,7.80
2022-11-25T21:01:34.713Z,7.80
2022-11-25T21:04:20.977Z,7.80
2022-11-25T21:07:13.039Z,7.90
2022-11-25T21:09:59.049Z,7.80
2022-11-25T21:12:44.532Z,7.90
2022-11-25T21:15:30.283Z,7.90
2022-11-25T21:18:16.708Z,7.80
2022-11-25T21:21:03.044Z,7.90
2022-11-25T21:23:48.733Z,7.90
2022-11-25T21:26:34.839Z,7.90
2022-11-25T21:29:20.192Z,7.90
2022-11-25T21:32:24.428Z,7.90
2022-11-25T21:35:12.364Z,7.90
2022-11-25T21:37:58.736Z,7.90
2022-11-25T21:40:49.767Z,7.90
2022-11-25T21:43:40.675Z,7.90
2022-11-25T21:46:30.523Z,7.90
2022-11-25T21:49:16.180Z,7.80
2022-11-25T21:52:02.299Z,7.90
2022-11-25T21:54:48.072Z,7.90
2022-11-25T21:57:34.709Z,7.90
2022-11-25T22:00:24.648Z,7.90
2022-11-25T22:03:16.439Z,7.90
2022-11-25T22:06:02.489Z,7.90
2022-11-25T22:08:48.041Z,7.80
2022-11-25T22:11:36.991Z,7.80
2022-11-25T22:14:36.887Z,7.80
2022-11-25T22:17:22.852Z,7.80
2022-11-25T22:20:37.235Z,7.80
2022-11-25T22:23:23.346Z,7.80
2022-11-25T22:26:22.789Z,7.90
2022-11-25T22:29:18.373Z,7.90
2022-11-25T22:32:08.251Z,7.90
2022-11-25T22:34:55.345Z,7.90
2022-11-25T22:37:40.785Z,7.80
2022-11-25T22:40:26.599Z,7.90
2022-11-25T22:43:21.742Z,9.20
2022-11-25T22:46:07.407Z,7.90
2022-11-25T22:48:53.308Z,7.90
2022-11-25T22:51:38.741Z,7.90
2022-11-25T22:54:24.884Z,7.90
2022-11-25T22:57:10.585Z,7.90
2022-11-25T22:59:56.415Z,7.90
2022-11-25T23:02:42.320Z,7.90
2022-11-25T23:05:36.644Z,7.10
2022-11-25T23:08:25.142Z,7.90
2022-11-25T23:11:17.421Z,7.90
2022-11-25T23:14:02.678Z,7.90
2022-11-25T23:16:48.598Z,7.90
2022-11-25T23:19:34.239Z,7.90
2022-11-25T23:22:20.303Z,7.90
2022-11-25T23:25:13.867Z,7.90
2022-11-25T23:27:59.962Z,8.00
2022-11-25T23:30:53.966Z,8.00
2022-11-25T23:33:41.397Z,8.00
2022-11-25T23:36:31.371Z,8.00
2022-11-25T23:39:22.191Z,8.00
2022-11-25T23:42:19.211Z,8.00
2022-11-25T23:45:07.519Z,8.00
2022-11-25T23:47:55.088Z,8.00
2022-11-25T23:50:41.042Z,8.00
2022-11-25T23:53:32.946Z,8.00
2022-11-25T23:56:19.430Z,8.00
2022-11-25T23:59:13.393Z,8.00
